Weather

Rainfall Maps have ended for the season and will begin again on May 1st.

DAILY 7 DAY TOTAL
onrain

Note: Some stations are located near irrigated fields and may also report irrigation

Alliston Mount Forest Blyth Guelph Grand Bend Strathroy Woodstock Belmont Simcoe Leamington Chatham West Lorne






Simcoe-Research Station - Historical Weather Data
Date Max Temp (°C) Min Temp (°C) Avg Temp (°C) Rain (mm) 7Day Rain(mm) Total Rain(mm) Avg RH (%)
10/31/2022 14.8 6.4 11.5 8.2 13.4 -5555.8 99.0
10/30/2022 14.2 0.3 7.7 0.2 5.2 -5564.0 85.0
10/29/2022 14.8 -0.6 7.0 0.0 5.0 -5564.2 87.2
10/28/2022 11.1 2.0 5.3 0.0 5.0 -5564.2 83.1
10/27/2022 11.0 3.6 6.9 0.0 5.0 -5564.2 74.5
10/26/2022 15.6 7.9 12.2 5.0 8.8 -5564.2 90.2
10/25/2022 19.5 6.6 13.2 0.0 5.0 -5569.2 84.8
10/24/2022 19.5 4.1 11.7 0.0 5.4 -5569.2 81.2
10/23/2022 21.7 8.6 14.2 0.0 11.6 -5569.2 66.8
10/22/2022 20.5 10.8 14.6 0.0 11.6 -5569.2 63.0
10/21/2022 17.0 -0.9 9.4 0.0 12.4 -5569.2 71.5
10/20/2022 7.1 -0.3 3.6 3.8 14.4 -5569.2 82.1
10/19/2022 6.7 1.7 4.0 1.2 27.0 -5573.0 91.3
10/18/2022 6.4 2.5 4.5 0.4 27.6 -5574.2 89.0
10/17/2022 9.9 2.9 6.4 6.2 27.2 -5574.6 87.1
10/16/2022 15.1 4.3 10.0 0.0 21.0 -5580.8 72.0
10/15/2022 13.8 4.2 10.2 0.8 21.0 -5580.8 63.8
10/14/2022 13.5 3.9 8.8 2.0 20.2 -5581.6 72.7
10/13/2022 16.2 6.5 12.0 16.4 19.0 -5583.6 85.0
10/12/2022 19.8 13.6 16.5 1.8 2.6 -5600.0 74.6
10/11/2022 21.5 5.3 13.8 0.0 0.8 -5601.8 72.3
10/10/2022 16.7 5.3 10.7 0.0 0.8 -5601.8 74.8
10/9/2022 15.9 6.3 11.2 0.0 0.8 -5601.8 64.6
10/8/2022 10.9 1.3 6.2 0.0 0.8 -5601.8 74.7
10/7/2022 15.3 4.0 9.5 0.8 0.8 -5601.8 75.4
10/6/2022 21.1 13.0 16.4 0.0 0.0 -5602.6 79.0
10/5/2022 23.4 5.1 13.9 0.0 0.0 -5602.6 69.0
10/4/2022 19.3 3.6 10.6 0.0 0.0 -5602.6 67.5
10/3/2022 16.1 2.9 8.8 0.0 1.2 -5602.6 71.4
10/2/2022 13.9 6.0 10.8 0.0 4.2 -5602.6 66.4
10/1/2022 18.8 7.8 12.6 0.0 16.8 -5602.6 71.9
9/30/2022 16.9 5.6 10.9 0.0 16.8 -5602.6 78.8
9/29/2022 15.8 6.6 10.8 0.0 16.8 -5602.6 76.2
9/28/2022 14.4 8.3 11.3 0.0 16.8 -5602.6 87.0
9/27/2022 15.2 10.4 12.2 1.2 16.8 -5602.6 89.4
9/26/2022 15.5 9.9 12.3 3.0 15.6 -5603.8 87.1
9/25/2022 18.8 12.2 14.8 12.6 12.6 -5606.8 92.8
9/24/2022 16.3 6.7 11.6 0.0 0.0 -5619.4 82.6
9/23/2022 16.1 3.6 9.8 0.0 0.0 -5619.4 71.5
9/22/2022 19.3 7.4 13.7 0.0 0.0 -5619.4 73.1
9/21/2022 23.9 15.4 20.6 - 0.0 -5619.4 91.7
9/20/2022 25.3 13.7 19.1 - 0.4 -4620.4 80.1
9/19/2022 25.7 16.1 21.0 - 0.6 -3621.4 83.4
9/18/2022 26.0 20.5 22.7 - 0.6 -2622.4 79.7
9/17/2022 25.3 14.2 19.3 - 0.8 -1623.4 88.7
9/16/2022 26.0 9.5 17.8 - 1.0 -624.4 85.7
9/15/2022 18.9 8.6 13.4 0.0 1.2 374.6 81.6
9/14/2022 24.0 13.0 18.0 0.4 2.0 374.6 82.2
9/13/2022 19.7 11.1 14.9 0.2 3.8 374.2 89.3
9/12/2022 22.8 14.7 19.8 0.0 7.2 374.0 87.1
9/11/2022 20.9 18.7 19.8 0.2 16.0 374.0 90.2
9/10/2022 25.5 17.2 21.3 0.2 18.0 373.8 83.2
9/9/2022 25.8 12.6 19.3 0.2 17.8 373.6 83.3
9/8/2022 24.2 13.2 18.6 0.8 17.6 373.4 83.8
9/7/2022 23.1 13.8 18.0 2.2 16.8 372.6 91.3
9/6/2022 22.9 15.6 18.4 3.6 14.6 370.4 82.6
9/5/2022 17.9 16.5 17.1 8.8 27.6 366.8 98.9
9/4/2022 20.9 16.4 18.8 2.2 29.0 358.0 97.7
9/3/2022 28.4 18.4 23.2 0.0 26.8 355.8 82.7
9/2/2022 25.9 14.8 20.3 0.0 26.8 355.8 75.8
9/1/2022 24.3 11.8 18.3 0.0 26.8 355.8 70.6
8/31/2022 25.7 14.9 20.6 0.0 26.8 355.8 72.4
8/30/2022 25.1 18.7 21.3 16.6 26.8 355.8 93.7
8/29/2022 28.8 19.3 24.3 10.2 10.2 339.2 84.6
8/28/2022 28.2 13.3 20.9 0.0 4.2 329.0 75.3
8/27/2022 24.2 12.6 18.1 0.0 12.0 329.0 69.7
8/26/2022 26.7 16.6 21.7 0.0 12.6 329.0 81.3
8/25/2022 27.9 16.5 22.2 0.0 16.2 329.0 82.5
8/24/2022 27.8 14.9 21.7 0.0 16.2 329.0 77.3
8/23/2022 27.5 17.1 21.8 0.0 16.8 329.0 78.1
8/22/2022 24.5 19.2 20.5 4.2 16.8 329.0 95.9
8/21/2022 24.5 18.0 20.9 7.8 12.6 324.8 92.9
8/20/2022 29.3 17.2 23.0 0.6 4.8 317.0 81.1
8/19/2022 27.6 15.3 21.3 3.6 4.2 316.4 84.1
8/18/2022 27.1 14.2 20.8 0.0 0.6 312.8 75.9
8/17/2022 27.7 16.6 20.4 0.6 0.6 312.8 75.6
8/16/2022 23.3 16.4 19.8 0.0 0.0 312.2 75.8
8/15/2022 26.2 15.7 20.8 0.0 0.0 312.2 67.2
8/14/2022 24.0 16.3 19.8 0.0 9.6 312.2 71.5
8/13/2022 25.2 11.6 19.0 0.0 9.6 312.2 61.1
8/12/2022 25.4 11.6 18.7 0.0 9.8 312.2 65.4
8/11/2022 25.4 14.4 20.5 0.0 11.4 312.2 69.2
8/10/2022 25.4 14.1 20.3 0.0 11.6 312.2 77.9
8/9/2022 23.4 17.2 20.0 0.0 27.4 312.2 80.7
8/8/2022 28.8 21.8 24.5 9.6 27.4 312.2 94.1
8/7/2022 29.9 21.7 25.6 0.0 47.0 302.6 90.0
8/6/2022 29.3 19.5 24.7 0.2 47.0 302.6 85.8
8/5/2022 27.9 20.9 23.2 1.6 46.8 302.4 94.7
8/4/2022 28.6 20.3 23.9 0.2 45.2 300.8 92.2
8/3/2022 30.3 13.9 21.8 15.8 58.6 300.6 83.1
8/2/2022 26.0 17.2 21.4 0.0 42.8 284.8 80.6
8/1/2022 26.7 18.2 22.5 29.2 42.8 284.8 86.5
7/31/2022 26.4 15.8 21.3 0.0 13.6 255.6 80.2
7/30/2022 25.9 14.9 20.5 0.0 16.6 255.6 73.6
7/29/2022 25.7 15.5 21.0 0.0 16.6 255.6 70.3
7/28/2022 27.6 19.1 23.6 13.6 16.6 255.6 82.3
7/27/2022 25.7 14.7 20.8 0.0 3.0 242.0 85.0
7/26/2022 24.5 12.9 19.3 0.0 12.6 242.0 76.5
7/25/2022 24.8 15.6 20.8 0.0 13.0 242.0 68.5
7/24/2022 29.1 19.4 24.7 3.0 54.2 242.0 83.5
7/23/2022 28.0 18.8 24.1 0.0 61.6 239.0 77.1
7/22/2022 29.1 19.1 24.5 0.0 61.6 239.0 73.3
7/21/2022 29.4 21.1 24.7 0.0 61.6 239.0 78.8
7/20/2022 30.3 21.5 26.0 9.6 61.6 239.0 78.3
7/19/2022 30.3 20.4 25.1 0.4 53.0 229.4 78.8
7/18/2022 27.7 19.4 22.5 41.2 52.6 229.0 88.3
7/17/2022 26.7 17.6 21.7 10.4 14.8 187.8 86.2
7/16/2022 27.8 16.5 22.5 0.0 4.4 177.4 62.8
7/15/2022 27.7 12.1 20.4 0.0 4.4 177.4 58.3
7/14/2022 26.0 12.2 19.5 0.0 4.4 177.4 70.2
7/13/2022 24.2 15.5 19.9 1.0 4.4 177.4 75.7
7/12/2022 27.1 19.7 24.0 0.0 3.4 176.4 69.0
7/11/2022 29.0 12.4 21.9 3.4 5.2 176.4 65.2
7/10/2022 26.4 11.3 19.5 0.0 1.8 173.0 56.4
7/9/2022 25.0 14.0 19.4 0.0 1.8 173.0 55.4
7/8/2022 27.3 14.7 21.4 0.0 1.8 173.0 76.7
7/7/2022 27.3 13.9 20.8 0.0 2.2 173.0 72.6
7/6/2022 24.7 16.3 19.9 0.0 2.2 173.0 82.2
7/5/2022 28.1 19.1 23.1 1.8 3.6 173.0 80.0
7/4/2022 28.9 12.8 21.7 0.0 1.8 171.2 67.3
7/3/2022 26.3 13.2 20.4 0.0 1.8 171.2 54.3
7/2/2022 28.1 15.6 22.2 0.0 1.8 171.2 64.9
7/1/2022 28.1 19.7 23.9 0.4 1.8 171.2 71.7
6/30/2022 29.8 13.3 21.8 0.0 1.4 170.8 71.5
6/29/2022 24.0 13.1 18.1 1.4 1.4 170.8 78.5
6/28/2022 21.1 9.0 16.0 0.0 0.0 169.4 69.6
6/27/2022 22.5 12.9 18.3 0.0 0.0 169.4 61.7
6/26/2022 27.6 16.7 22.9 0.0 0.0 169.4 74.3
6/25/2022 28.7 15.2 22.8 0.0 0.0 169.4 57.4
6/24/2022 27.7 11.9 21.0 0.0 0.0 169.4 61.0
6/23/2022 27.7 13.6 21.0 0.0 0.0 169.4 64.2
6/22/2022 32.8 20.8 27.5 0.0 0.0 169.4 60.0
6/21/2022 31.1 17.1 24.9 0.0 0.0 169.4 64.6
6/20/2022 20.9 14.0 17.1 0.0 0.0 169.4 67.5
6/19/2022 23.8 8.2 16.4 0.0 0.0 169.4 47.5
6/18/2022 20.9 10.4 15.6 0.0 28.4 169.4 50.3
6/17/2022 26.4 15.2 22.6 0.0 28.4 169.4 53.6
6/16/2022 31.4 22.4 27.3 0.0 28.6 169.4 68.9
6/15/2022 31.3 17.1 23.5 0.0 40.0 169.4 79.7
6/14/2022 25.9 16.5 21.1 0.0 43.2 169.4 64.5
6/13/2022 23.1 11.1 17.5 0.0 63.2 169.4 77.4
6/12/2022 23.9 16.5 19.5 28.4 78.2 169.4 86.2
6/11/2022 23.8 14.4 19.5 0.0 50.0 141.0 69.4
6/10/2022 22.6 10.6 16.8 0.2 50.0 141.0 74.3
6/9/2022 21.5 12.2 15.7 11.4 49.8 140.8 85.2
6/8/2022 20.1 10.9 15.8 3.2 38.4 129.4 82.0
6/7/2022 19.8 13.2 17.6 20.0 50.4 126.2 93.2
6/6/2022 23.1 14.3 18.2 15.0 30.4 106.2 77.8
6/5/2022 22.1 8.8 16.1 0.2 15.4 91.2 61.3
6/4/2022 20.9 7.0 14.6 0.0 15.2 91.0 53.1
6/3/2022 22.5 10.0 17.2 0.0 19.2 91.0 66.5
6/2/2022 22.1 11.3 15.8 0.0 22.0 91.0 60.4
6/1/2022 28.6 17.0 22.5 15.2 22.0 91.0 78.0
5/31/2022 29.7 19.9 25.5 0.0 6.8 75.8 62.5
5/30/2022 29.0 14.8 22.8 0.0 6.8 75.8 70.5
5/29/2022 24.3 11.7 18.2 0.0 6.8 75.8 76.9
5/28/2022 21.6 13.3 17.0 4.0 7.0 75.8 77.9
5/27/2022 22.9 16.4 19.0 2.8 5.6 71.8 84.2
5/26/2022 25.7 15.8 20.5 0.0 4.4 69.0 76.9
5/25/2022 22.3 9.1 15.4 0.0 4.6 69.0 75.9
5/24/2022 19.9 7.0 13.5 0.0 6.2 69.0 67.3
5/23/2022 16.9 7.9 11.9 0.0 7.0 69.0 66.1
5/22/2022 18.1 9.3 14.8 0.2 20.4 69.0 90.9
5/21/2022 26.4 16.6 22.8 2.6 20.2 68.8 76.0
5/20/2022 23.4 11.7 18.8 1.6 17.6 66.2 87.5
5/19/2022 21.4 8.8 14.3 0.2 16.0 64.6 86.8
5/18/2022 14.0 4.5 9.7 1.6 15.8 64.4 81.4
5/17/2022 15.3 7.2 11.9 0.8 14.2 62.8 71.3
5/16/2022 19.3 12.0 15.7 13.4 13.4 62.0 81.9
5/15/2022 28.5 14.2 21.0 0.0 0.0 48.6 72.1
5/14/2022 25.8 14.6 20.1 0.0 0.0 48.6 78.4
5/13/2022 26.4 13.1 20.1 0.0 0.0 48.6 64.2
5/12/2022 27.4 10.0 19.9 0.0 0.2 48.6 41.6
5/11/2022 25.5 7.1 17.8 0.0 0.2 48.6 45.9
5/10/2022 23.8 8.0 15.8 0.0 6.4 48.6 43.4
5/9/2022 21.9 7.0 13.6 0.0 22.4 48.6 46.9
5/8/2022 16.7 4.1 10.5 0.0 22.6 48.6 50.9
5/7/2022 14.3 6.9 10.3 0.0 48.6 48.6 44.1
5/6/2022 14.6 8.7 11.1 0.2 48.6 48.6 59.5
5/5/2022 15.6 6.2 10.9 0.0 48.4 48.4 69.9
5/4/2022 16.1 7.3 11.5 6.2 48.4 48.4 90.5
5/3/2022 13.8 5.2 9.0 16.0 45.2 42.2 94.8
5/2/2022 11.9 8.5 10.2 0.2 29.2 26.2 89.5
5/1/2022 11.8 4.4 8.8 26.0 36.6 26.0 77.4